createdAt,value
2023-03-07T00:00:43.025Z,3.40
2023-03-07T00:03:14.621Z,3.40
2023-03-07T00:05:43.001Z,3.40
2023-03-07T00:08:12.875Z,3.40
2023-03-07T00:10:41.112Z,3.50
2023-03-07T00:13:11.337Z,3.50
2023-03-07T00:15:40.753Z,3.50
2023-03-07T00:18:09.485Z,3.50
2023-03-07T00:20:39.121Z,3.70
2023-03-07T00:23:07.585Z,3.50
2023-03-07T00:25:36.204Z,3.50
2023-03-07T00:28:04.552Z,3.50
2023-03-07T00:30:33.219Z,3.50
2023-03-07T00:33:01.931Z,3.60
2023-03-07T00:35:30.201Z,3.60
2023-03-07T00:37:59.932Z,3.60
2023-03-07T00:40:28.951Z,3.50
2023-03-07T00:42:57.178Z,3.50
2023-03-07T00:45:27.056Z,3.50
2023-03-07T00:47:56.888Z,3.60
2023-03-07T00:50:25.364Z,3.60
2023-03-07T00:52:53.994Z,3.60
2023-03-07T00:55:24.882Z,3.60
2023-03-07T00:57:56.054Z,3.60
2023-03-07T01:00:24.358Z,3.60
2023-03-07T01:02:53.004Z,3.60
2023-03-07T01:05:21.259Z,3.60
2023-03-07T01:07:49.837Z,3.60
2023-03-07T01:10:18.908Z,3.60
2023-03-07T01:12:48.835Z,3.60
2023-03-07T01:15:18.033Z,3.50
2023-03-07T01:17:46.322Z,3.60
2023-03-07T01:20:14.700Z,3.60
2023-03-07T01:22:44.678Z,3.80
2023-03-07T01:25:13.462Z,3.50
2023-03-07T01:27:43.304Z,3.40
2023-03-07T01:30:14.436Z,3.40
2023-03-07T01:32:42.771Z,3.40
2023-03-07T01:35:11.648Z,3.40
2023-03-07T01:37:40.587Z,3.30
2023-03-07T01:40:12.540Z,3.30
2023-03-07T01:42:42.320Z,3.20
2023-03-07T01:45:49.565Z,3.10
2023-03-07T01:48:20.935Z,3.00
2023-03-07T01:50:51.491Z,2.90
2023-03-07T01:53:20.062Z,2.90
2023-03-07T01:55:49.189Z,2.70
2023-03-07T01:58:21.846Z,2.70
2023-03-07T02:00:51.430Z,2.60
2023-03-07T02:03:31.474Z,2.60
2023-03-07T02:06:05.169Z,2.60
2023-03-07T02:08:36.434Z,2.50
2023-03-07T02:11:06.934Z,2.50
2023-03-07T02:13:35.680Z,2.50
2023-03-07T02:16:07.652Z,2.40
2023-03-07T02:18:45.401Z,2.40
2023-03-07T02:21:30.927Z,2.30
2023-03-07T02:24:12.717Z,2.30
2023-03-07T02:26:54.489Z,2.40
2023-03-07T02:29:23.156Z,2.40
2023-03-07T02:31:52.548Z,2.30
2023-03-07T02:34:23.760Z,2.40
2023-03-07T02:37:05.845Z,2.40
2023-03-07T02:39:35.532Z,2.50
2023-03-07T02:42:14.675Z,2.50
2023-03-07T02:44:59.413Z,2.50
2023-03-07T02:47:30.416Z,2.60
2023-03-07T02:54:45.361Z,2.60
2023-03-07T02:57:15.616Z,2.80
2023-03-07T02:59:44.620Z,2.80
2023-03-07T03:02:13.100Z,2.80
2023-03-07T03:04:41.304Z,2.90
2023-03-07T03:07:09.707Z,2.90
2023-03-07T03:09:38.186Z,2.90
2023-03-07T03:12:07.115Z,2.90
2023-03-07T03:14:38.888Z,3.00
2023-03-07T03:17:07.567Z,3.00
2023-03-07T03:19:36.548Z,3.00
2023-03-07T03:22:05.583Z,3.00
2023-03-07T03:24:41.256Z,3.00
2023-03-07T03:27:12.101Z,3.00
2023-03-07T03:29:42.700Z,3.00
2023-03-07T03:32:11.501Z,3.00
2023-03-07T03:34:41.423Z,3.00
2023-03-07T03:37:09.779Z,3.10
2023-03-07T03:39:39.064Z,3.10
2023-03-07T03:42:07.810Z,3.00
2023-03-07T03:44:37.147Z,3.00
2023-03-07T03:47:09.482Z,3.00
2023-03-07T03:49:38.469Z,3.00
2023-03-07T03:52:07.327Z,3.00
2023-03-07T03:54:36.338Z,3.00
2023-03-07T03:57:04.930Z,3.00
2023-03-07T03:59:33.702Z,2.90
2023-03-07T04:02:02.122Z,2.90
2023-03-07T04:04:31.847Z,2.90
2023-03-07T04:07:01.432Z,2.90
2023-03-07T04:09:29.659Z,2.90
2023-03-07T04:11:58.485Z,3.00
2023-03-07T04:14:26.870Z,3.00
2023-03-07T04:16:57.659Z,3.00
2023-03-07T04:19:27.002Z,3.00
2023-03-07T04:21:57.703Z,3.00
2023-03-07T04:24:26.028Z,3.00
2023-03-07T04:26:54.272Z,3.00
2023-03-07T04:29:23.880Z,3.00
2023-03-07T04:31:56.301Z,3.00
2023-03-07T04:34:24.581Z,3.00
2023-03-07T04:36:53.312Z,3.00
2023-03-07T04:39:23.305Z,3.10
2023-03-07T04:41:52.337Z,3.10
2023-03-07T04:44:22.601Z,3.10
2023-03-07T04:46:51.006Z,3.20
2023-03-07T04:49:19.986Z,3.20
2023-03-07T04:51:48.237Z,3.20
2023-03-07T04:54:18.513Z,3.50
2023-03-07T04:56:50.610Z,3.20
2023-03-07T04:59:21.267Z,3.20
2023-03-07T05:01:50.685Z,3.30
2023-03-07T05:04:19.344Z,3.20
2023-03-07T05:06:48.934Z,3.10
2023-03-07T05:09:17.182Z,3.30
2023-03-07T05:11:46.824Z,3.60
2023-03-07T05:14:16.817Z,3.30
2023-03-07T05:16:45.015Z,3.30
2023-03-07T05:19:16.281Z,3.40
2023-03-07T05:21:44.666Z,3.40
2023-03-07T05:24:14.113Z,3.40
2023-03-07T05:26:43.800Z,3.40
2023-03-07T05:29:12.691Z,3.40
2023-03-07T05:31:42.251Z,3.70
2023-03-07T05:34:11.314Z,3.40
2023-03-07T05:36:40.646Z,3.50
2023-03-07T05:39:10.707Z,3.40
2023-03-07T05:41:39.088Z,3.50
2023-03-07T05:44:07.508Z,3.50
2023-03-07T05:46:35.940Z,3.50
2023-03-07T05:49:07.266Z,3.60
2023-03-07T05:51:35.718Z,3.50
2023-03-07T05:54:04.672Z,3.50
2023-03-07T05:56:33.770Z,3.60
2023-03-07T05:59:02.000Z,3.60
2023-03-07T06:01:30.899Z,3.60
2023-03-07T06:03:59.926Z,3.60
2023-03-07T06:06:31.115Z,3.60
2023-03-07T06:08:59.427Z,3.60
2023-03-07T06:11:28.145Z,3.60
2023-03-07T06:13:59.897Z,3.90
2023-03-07T06:16:30.301Z,3.60
2023-03-07T06:19:00.503Z,3.60
2023-03-07T06:21:32.009Z,3.70
2023-03-07T06:24:00.250Z,3.70
2023-03-07T06:26:29.975Z,3.70
2023-03-07T06:28:58.178Z,3.90
2023-03-07T06:31:28.897Z,3.80
2023-03-07T06:33:57.763Z,3.80
2023-03-07T06:36:28.071Z,3.90
2023-03-07T06:39:03.779Z,3.90
2023-03-07T06:41:32.551Z,3.90
2023-03-07T06:44:02.827Z,3.90
2023-03-07T06:46:33.693Z,4.00
2023-03-07T06:49:06.376Z,4.00
2023-03-07T06:51:37.828Z,4.10
2023-03-07T06:54:08.975Z,4.10
2023-03-07T06:56:37.731Z,4.10
2023-03-07T06:59:05.968Z,4.10
2023-03-07T07:01:35.723Z,4.10
2023-03-07T07:04:04.831Z,4.20
2023-03-07T07:06:33.078Z,4.20
2023-03-07T07:09:02.096Z,4.20
2023-03-07T07:11:36.614Z,4.30
2023-03-07T07:14:06.376Z,4.30
2023-03-07T07:16:36.403Z,4.30
2023-03-07T07:19:06.365Z,4.30
2023-03-07T07:21:38.435Z,4.30
2023-03-07T07:24:07.681Z,4.30
2023-03-07T07:26:38.709Z,4.30
2023-03-07T07:29:07.003Z,4.30
2023-03-07T07:31:38.299Z,4.20
2023-03-07T07:34:06.860Z,4.30
2023-03-07T07:36:35.612Z,4.30
2023-03-07T07:39:06.485Z,4.40
2023-03-07T07:41:40.013Z,4.50
2023-03-07T07:44:08.461Z,4.50
2023-03-07T07:46:43.488Z,4.50
2023-03-07T07:49:12.351Z,4.50
2023-03-07T07:51:41.320Z,4.60
2023-03-07T07:54:10.579Z,4.80
2023-03-07T07:56:40.281Z,4.70
2023-03-07T07:59:08.826Z,4.80
2023-03-07T08:01:37.881Z,4.90
2023-03-07T08:04:08.456Z,5.00
2023-03-07T08:06:37.074Z,4.90
2023-03-07T08:09:06.648Z,5.00
2023-03-07T08:11:35.843Z,4.90
2023-03-07T08:14:05.750Z,5.00
2023-03-07T08:16:34.363Z,5.00
2023-03-07T08:19:03.273Z,5.00
2023-03-07T08:21:32.072Z,5.00
2023-03-07T08:24:00.292Z,5.10
2023-03-07T08:26:28.745Z,5.00
2023-03-07T08:28:57.548Z,5.10
2023-03-07T08:31:28.706Z,5.10
2023-03-07T08:33:57.592Z,5.10
2023-03-07T08:36:25.805Z,5.30
2023-03-07T08:38:54.177Z,5.10
2023-03-07T08:41:24.118Z,5.00
2023-03-07T08:43:54.429Z,5.00
2023-03-07T08:46:23.528Z,5.00
2023-03-07T08:48:53.779Z,4.90
2023-03-07T08:51:22.164Z,4.90
2023-03-07T08:53:50.344Z,5.00
2023-03-07T08:56:21.217Z,4.80
2023-03-07T08:58:49.468Z,4.80
2023-03-07T09:01:17.827Z,4.80
2023-03-07T09:03:46.456Z,4.80
2023-03-07T09:06:20.774Z,4.80
2023-03-07T09:08:51.936Z,4.90
2023-03-07T09:11:21.708Z,4.90
2023-03-07T09:13:52.637Z,5.10
2023-03-07T09:16:22.579Z,5.20
2023-03-07T09:18:51.492Z,5.20
2023-03-07T09:21:21.331Z,5.20
2023-03-07T09:23:50.070Z,5.30
2023-03-07T09:26:18.625Z,5.50
2023-03-07T09:28:47.771Z,5.60
2023-03-07T09:31:17.148Z,5.70
2023-03-07T09:33:47.093Z,5.70
2023-03-07T09:36:18.200Z,5.80
2023-03-07T09:38:49.328Z,5.80
2023-03-07T09:41:57.703Z,5.70
2023-03-07T09:44:45.929Z,5.80
2023-03-07T09:47:40.836Z,5.70
2023-03-07T09:50:20.977Z,5.90
2023-03-07T09:52:54.323Z,5.80
2023-03-07T09:55:26.081Z,5.80
2023-03-07T09:58:00.049Z,5.90
2023-03-07T10:00:34.832Z,6.00
2023-03-07T10:03:23.476Z,6.00
2023-03-07T10:05:55.108Z,6.10
2023-03-07T10:08:30.107Z,6.30
2023-03-07T10:11:24.989Z,6.40
2023-03-07T10:14:24.663Z,6.60
2023-03-07T10:17:04.763Z,6.60
2023-03-07T10:19:47.291Z,6.70
2023-03-07T10:22:30.629Z,6.60
2023-03-07T10:25:17.974Z,6.60
2023-03-07T10:27:50.624Z,6.60
2023-03-07T10:30:20.875Z,6.30
2023-03-07T10:32:58.444Z,6.20
2023-03-07T10:35:43.131Z,6.20
2023-03-07T10:38:29.575Z,6.20
2023-03-07T10:41:03.099Z,6.10
2023-03-07T10:43:35.566Z,6.10
2023-03-07T10:46:25.415Z,6.00
2023-03-07T10:48:57.354Z,5.90
2023-03-07T10:51:45.399Z,5.90
2023-03-07T10:54:20.008Z,6.10
2023-03-07T10:57:10.700Z,5.90
2023-03-07T10:59:44.117Z,5.90
2023-03-07T11:02:33.194Z,5.80
2023-03-07T11:05:01.841Z,5.90
2023-03-07T11:07:34.038Z,5.90
2023-03-07T11:10:27.012Z,5.90
2023-03-07T11:12:57.461Z,5.90
2023-03-07T11:15:27.610Z,6.00
2023-03-07T11:17:56.093Z,6.10
2023-03-07T11:20:30.441Z,6.20
2023-03-07T11:23:23.370Z,6.40
2023-03-07T11:25:54.253Z,6.50
2023-03-07T11:28:31.625Z,6.60
2023-03-07T11:31:16.082Z,6.90
2023-03-07T11:33:59.534Z,7.30
2023-03-07T11:36:33.942Z,7.40
2023-03-07T11:39:13.344Z,7.80
2023-03-07T11:41:48.231Z,7.70
2023-03-07T11:44:35.589Z,7.90
2023-03-07T11:47:34.060Z,7.80
2023-03-07T11:50:17.652Z,7.70
2023-03-07T11:53:48.360Z,7.90
2023-03-07T11:56:25.960Z,8.10
2023-03-07T11:59:39.266Z,8.50
2023-03-07T12:02:33.085Z,8.70
2023-03-07T12:05:20.756Z,8.60
2023-03-07T12:08:08.753Z,8.50
2023-03-07T12:10:55.190Z,8.70
2023-03-07T12:13:44.555Z,8.40
2023-03-07T12:16:27.630Z,8.30
2023-03-07T12:19:25.197Z,8.20
2023-03-07T12:22:23.722Z,8.30
2023-03-07T12:25:27.812Z,8.20
2023-03-07T12:28:09.674Z,8.10
2023-03-07T12:30:51.920Z,8.20
2023-03-07T12:33:30.248Z,8.30
2023-03-07T12:36:07.579Z,8.60
2023-03-07T12:38:44.956Z,8.60
2023-03-07T12:41:34.724Z,8.80
2023-03-07T12:44:14.636Z,9.00
2023-03-07T12:46:51.250Z,9.00
2023-03-07T12:49:40.770Z,9.10
2023-03-07T12:52:33.429Z,9.00
2023-03-07T12:55:17.763Z,9.10
2023-03-07T12:57:57.404Z,9.10
2023-03-07T13:00:27.109Z,9.20
2023-03-07T13:03:07.017Z,9.10
2023-03-07T13:05:38.846Z,9.00
2023-03-07T13:08:09.559Z,8.90
2023-03-07T13:10:47.338Z,8.90
2023-03-07T13:13:52.554Z,8.70
2023-03-07T13:16:38.482Z,8.20
2023-03-07T13:19:56.453Z,8.10
2023-03-07T13:23:12.414Z,7.90
2023-03-07T13:25:55.854Z,8.40
2023-03-07T13:28:37.746Z,9.30
2023-03-07T13:31:52.374Z,10.20
2023-03-07T13:34:51.683Z,11.10
2023-03-07T13:37:58.599Z,12.20
2023-03-07T13:40:58.651Z,13.50
2023-03-07T13:44:03.846Z,14.00
2023-03-07T13:47:01.317Z,14.30
2023-03-07T13:49:46.578Z,14.40
2023-03-07T13:52:36.925Z,14.50
2023-03-07T13:55:23.016Z,15.20
2023-03-07T13:57:57.068Z,14.00
2023-03-07T14:00:38.398Z,13.60
2023-03-07T14:03:28.117Z,13.10
2023-03-07T14:06:01.587Z,12.00
2023-03-07T14:08:35.351Z,11.60
2023-03-07T14:11:05.678Z,11.10
2023-03-07T14:14:04.603Z,10.20
2023-03-07T14:16:53.402Z,9.70
2023-03-07T14:19:47.431Z,9.00
2023-03-07T14:22:43.126Z,8.90
2023-03-07T14:25:25.079Z,8.60
2023-03-07T14:27:58.606Z,8.60
2023-03-07T14:30:32.265Z,8.50
2023-03-07T14:33:02.337Z,8.30
2023-03-07T14:35:37.104Z,8.00
2023-03-07T14:38:09.825Z,7.90
2023-03-07T14:40:57.182Z,7.70
2023-03-07T14:43:46.926Z,7.50
2023-03-07T14:46:31.131Z,7.40
2023-03-07T14:49:25.583Z,7.20
2023-03-07T14:51:54.169Z,7.00
2023-03-07T14:54:30.598Z,6.80
2023-03-07T14:57:01.817Z,6.80
2023-03-07T14:59:31.666Z,6.70
2023-03-07T15:02:02.964Z,6.70
2023-03-07T15:04:35.861Z,6.60
2023-03-07T15:07:11.942Z,6.60
2023-03-07T15:09:41.267Z,6.50
2023-03-07T15:12:18.161Z,6.70
2023-03-07T15:14:51.734Z,6.80
2023-03-07T15:17:29.145Z,6.70
2023-03-07T15:20:03.154Z,6.60
2023-03-07T15:22:39.441Z,6.50
2023-03-07T15:25:19.176Z,6.40
2023-03-07T15:27:48.215Z,6.50
2023-03-07T15:30:26.793Z,6.50
2023-03-07T15:33:16.607Z,6.50
2023-03-07T15:35:46.981Z,6.50
2023-03-07T15:38:20.122Z,6.50
2023-03-07T15:40:48.444Z,6.50
2023-03-07T15:43:26.997Z,6.60
2023-03-07T15:46:06.708Z,6.60
2023-03-07T15:48:48.967Z,6.60
2023-03-07T15:51:21.250Z,6.60
2023-03-07T15:53:59.808Z,6.60
2023-03-07T15:56:34.395Z,6.50
2023-03-07T15:59:08.467Z,6.50
2023-03-07T16:01:37.126Z,6.70
2023-03-07T16:04:07.811Z,6.60
2023-03-07T16:06:44.879Z,6.60
2023-03-07T16:09:18.504Z,6.60
2023-03-07T16:11:48.012Z,7.00
2023-03-07T16:14:25.747Z,6.60
2023-03-07T16:16:56.867Z,6.60
2023-03-07T16:19:26.669Z,6.60
2023-03-07T16:21:55.272Z,6.60
2023-03-07T16:24:26.636Z,6.70
2023-03-07T16:26:54.937Z,6.60
2023-03-07T16:29:24.757Z,6.60
2023-03-07T16:31:53.045Z,6.50
2023-03-07T16:34:24.302Z,6.50
2023-03-07T16:36:53.990Z,6.50
2023-03-07T16:39:22.901Z,6.50
2023-03-07T16:41:51.937Z,6.50
2023-03-07T16:44:23.985Z,6.40
2023-03-07T16:47:04.453Z,6.40
2023-03-07T16:49:33.029Z,6.30
2023-03-07T16:52:06.384Z,6.30
2023-03-07T16:54:35.308Z,6.30
2023-03-07T16:57:12.471Z,6.20
2023-03-07T16:59:47.591Z,6.20
2023-03-07T17:16:19.150Z,5.90
2023-03-07T17:18:48.166Z,5.90
2023-03-07T17:21:20.148Z,5.80
2023-03-07T17:23:50.030Z,5.70
2023-03-07T17:26:26.864Z,5.70
2023-03-07T17:28:59.842Z,5.70
2023-03-07T17:31:29.410Z,5.60
2023-03-07T17:33:58.009Z,5.60
2023-03-07T17:36:26.513Z,5.50
2023-03-07T17:38:54.763Z,5.40
2023-03-07T17:41:23.433Z,5.40
2023-03-07T17:43:53.880Z,5.40
2023-03-07T17:46:25.160Z,5.40
2023-03-07T17:48:56.038Z,5.40
2023-03-07T17:51:24.685Z,5.50
2023-03-07T17:53:53.656Z,5.50
2023-03-07T17:56:21.910Z,5.50
2023-03-07T17:58:50.213Z,5.50
2023-03-07T18:01:25.886Z,5.60
2023-03-07T18:03:55.600Z,5.60
2023-03-07T18:06:23.971Z,5.60
2023-03-07T18:08:53.451Z,5.90
2023-03-07T18:11:22.952Z,5.70
2023-03-07T18:13:51.174Z,5.70
2023-03-07T18:16:20.072Z,5.70
2023-03-07T18:18:58.922Z,5.70
2023-03-07T18:21:30.623Z,5.70
2023-03-07T18:23:59.553Z,5.60
2023-03-07T18:26:28.871Z,5.70
2023-03-07T18:28:57.055Z,5.70
2023-03-07T18:31:29.447Z,5.70
2023-03-07T18:33:58.046Z,5.60
2023-03-07T18:36:28.056Z,5.60
2023-03-07T18:38:59.099Z,5.60
2023-03-07T18:41:28.335Z,5.60
2023-03-07T18:43:58.947Z,5.60
2023-03-07T18:46:31.295Z,5.70
2023-03-07T18:49:01.800Z,5.60
2023-03-07T18:51:30.822Z,5.60
2023-03-07T18:54:02.629Z,5.60
2023-03-07T18:56:31.712Z,5.60
2023-03-07T18:59:00.814Z,5.60
2023-03-07T19:01:31.561Z,5.60
2023-03-07T19:04:03.474Z,5.60
2023-03-07T19:06:35.424Z,5.60
2023-03-07T19:09:06.076Z,5.60
2023-03-07T19:11:35.994Z,5.60
2023-03-07T19:14:04.303Z,5.50
2023-03-07T19:16:32.966Z,5.50
2023-03-07T19:19:01.168Z,5.60
2023-03-07T19:21:31.501Z,5.50
2023-03-07T19:24:03.544Z,5.50
2023-03-07T19:26:33.106Z,5.50
2023-03-07T19:29:04.136Z,5.50
2023-03-07T19:31:35.035Z,5.50
2023-03-07T19:34:07.839Z,5.50
2023-03-07T19:36:37.354Z,5.60
2023-03-07T19:39:08.951Z,5.70
2023-03-07T19:41:40.526Z,5.60
2023-03-07T19:44:15.051Z,5.50
2023-03-07T19:46:46.704Z,5.50
2023-03-07T19:49:16.633Z,5.60
2023-03-07T19:51:45.298Z,5.50
2023-03-07T19:54:15.366Z,5.50
2023-03-07T19:56:45.759Z,5.50
2023-03-07T19:59:15.419Z,5.50
2023-03-07T20:11:07.350Z,5.50
2023-03-07T20:13:39.986Z,5.50
2023-03-07T20:16:10.584Z,5.50
2023-03-07T20:18:41.369Z,5.50
2023-03-07T20:21:12.225Z,5.40
2023-03-07T20:23:43.538Z,5.40
2023-03-07T20:26:15.115Z,5.40
2023-03-07T20:28:46.573Z,5.80
2023-03-07T20:31:15.056Z,5.40
2023-03-07T20:33:45.676Z,5.40
2023-03-07T20:36:19.404Z,5.40
2023-03-07T20:38:50.856Z,5.40
2023-03-07T20:41:22.651Z,5.40
2023-03-07T20:43:53.966Z,5.40
2023-03-07T20:46:23.731Z,5.30
2023-03-07T20:48:56.359Z,5.30
2023-03-07T20:51:27.883Z,5.40
2023-03-07T20:53:58.819Z,5.30
2023-03-07T20:56:29.510Z,5.50
2023-03-07T21:00:13.962Z,5.30
2023-03-07T21:02:43.572Z,5.40
2023-03-07T21:05:11.819Z,5.40
2023-03-07T21:07:41.040Z,5.40
2023-03-07T21:10:11.171Z,5.30
2023-03-07T21:12:39.470Z,5.30
2023-03-07T21:15:10.774Z,5.20
2023-03-07T21:17:38.967Z,5.20
2023-03-07T21:29:24.480Z,5.00
2023-03-07T21:31:53.906Z,4.90
2023-03-07T21:34:22.326Z,4.90
2023-03-07T21:36:55.976Z,4.90
2023-03-07T21:39:25.378Z,4.90
2023-03-07T21:41:53.848Z,4.90
2023-03-07T21:44:22.542Z,4.90
2023-03-07T21:46:52.142Z,5.00
2023-03-07T21:49:20.587Z,4.90
2023-03-07T22:06:25.996Z,4.90
2023-03-07T22:08:54.923Z,5.00
2023-03-07T22:11:24.327Z,5.10
2023-03-07T22:13:52.743Z,5.10
2023-03-07T22:16:22.161Z,5.10
2023-03-07T22:18:55.310Z,5.10
2023-03-07T22:21:26.709Z,5.10
2023-03-07T22:23:58.018Z,5.10
2023-03-07T22:26:28.053Z,5.10
2023-03-07T22:28:56.407Z,5.10
2023-03-07T22:31:25.672Z,5.10
2023-03-07T22:33:54.120Z,5.10
2023-03-07T22:36:24.015Z,5.10
2023-03-07T22:38:58.704Z,5.10
2023-03-07T22:41:27.402Z,5.00
2023-03-07T22:43:55.953Z,5.00
2023-03-07T22:46:26.441Z,5.00
2023-03-07T22:48:56.655Z,5.00
2023-03-07T22:51:27.257Z,5.00
2023-03-07T22:53:56.956Z,4.90
2023-03-07T22:56:28.392Z,4.90
2023-03-07T22:58:56.686Z,4.90
2023-03-07T23:01:27.922Z,5.00
2023-03-07T23:03:59.832Z,5.00
2023-03-07T23:06:34.059Z,5.00
2023-03-07T23:09:03.643Z,5.00
2023-03-07T23:11:34.957Z,5.00
2023-03-07T23:14:04.631Z,5.00
2023-03-07T23:16:36.315Z,5.00
2023-03-07T23:19:05.259Z,5.00
2023-03-07T23:21:35.334Z,5.00
2023-03-07T23:24:04.964Z,5.00
2023-03-07T23:26:37.208Z,5.00
2023-03-07T23:29:07.598Z,5.00
2023-03-07T23:31:38.933Z,5.00
2023-03-07T23:34:15.962Z,5.00
2023-03-07T23:36:46.511Z,5.00
2023-03-07T23:39:15.259Z,5.00
2023-03-07T23:41:43.504Z,5.00
2023-03-07T23:44:13.465Z,5.00
2023-03-07T23:46:42.111Z,5.10
2023-03-07T23:49:11.752Z,5.10
2023-03-07T23:51:40.754Z,5.00
2023-03-07T23:54:10.746Z,4.90
2023-03-07T23:56:39.550Z,4.90
2023-03-07T23:59:07.985Z,4.90
